Time;durP1;ratioP1;P1;durP2;ratioP2;P2;SDS_P1;SDS_P2;PMS_P1;PMS_P2;Temp;Humidity;BMP_temperature;BMP_pressure;BME280_temperature;BME280_humidity;BME280_pressure;Samples;Min_cycle;Max_cycle;Signal;HPM_P1;HPM_P2
2022/02/19 00:00:57;;;;;;;13.50;4.10;;;;;;;;;;5033782;28;20029;-65
2022/02/19 00:03:24;;;;;;;14.93;4.05;;;;;;;;;;5033678;28;20075;-65
2022/02/19 00:05:50;;;;;;;12.45;4.05;;;;;;;;;;5034083;28;20021;-65
2022/02/19 00:08:16;;;;;;;13.73;4.35;;;;;;;;;;5034104;28;20030;-64
2022/02/19 00:10:43;;;;;;;9.73;3.85;;;;;;;;;;5033792;28;20072;-65
2022/02/19 00:13:09;;;;;;;13.52;4.13;;;;;;;;;;5033697;28;20397;-65
2022/02/19 00:15:36;;;;;;;14.55;3.88;;;;;;;;;;5033953;28;20516;-64
2022/02/19 00:18:02;;;;;;;14.80;4.57;;;;;;;;;;5034174;28;20030;-65
2022/02/19 00:20:30;;;;;;;11.65;4.13;;;;;;;;;;5033919;28;20022;-65
2022/02/19 00:22:57;;;;;;;17.90;5.32;;;;;;;;;;5033310;28;20124;-65
2022/02/19 00:25:23;;;;;;;25.05;9.10;;;;;;;;;;5033537;28;20036;-65
2022/02/19 00:27:49;;;;;;;18.08;6.78;;;;;;;;;;5033794;28;20036;-65
2022/02/19 00:30:15;;;;;;;18.23;5.65;;;;;;;;;;5033603;28;20045;-65
2022/02/19 00:32:41;;;;;;;16.92;5.85;;;;;;;;;;5033419;28;20029;-65
2022/02/19 00:35:07;;;;;;;13.98;5.85;;;;;;;;;;5032171;28;20033;-65
2022/02/19 00:37:34;;;;;;;14.52;5.32;;;;;;;;;;5033457;28;20025;-65
2022/02/19 00:40:00;;;;;;;12.65;4.78;;;;;;;;;;5033570;28;20032;-65
2022/02/19 00:42:26;;;;;;;16.27;5.20;;;;;;;;;;5033142;28;20037;-64
2022/02/19 00:44:53;;;;;;;12.20;4.82;;;;;;;;;;5033343;28;20386;-64
2022/02/19 00:47:19;;;;;;;13.98;4.80;;;;;;;;;;5033062;28;20565;-65
2022/02/19 00:49:45;;;;;;;12.75;4.35;;;;;;;;;;5033307;28;20071;-65
2022/02/19 00:52:11;;;;;;;14.20;5.07;;;;;;;;;;5033388;28;20104;-64
2022/02/19 00:54:37;;;;;;;13.00;4.40;;;;;;;;;;5032734;28;20022;-64
2022/02/19 00:57:03;;;;;;;10.05;4.05;;;;;;;;;;5033792;28;20120;-65
2022/02/19 00:59:30;;;;;;;14.00;4.63;;;;;;;;;;5033364;28;20095;-64
2022/02/19 01:01:56;;;;;;;9.85;4.18;;;;;;;;;;5032813;28;20462;-64
2022/02/19 01:04:22;;;;;;;9.68;4.28;;;;;;;;;;5033162;28;20371;-64
2022/02/19 01:06:48;;;;;;;16.20;4.60;;;;;;;;;;5032941;28;20095;-64
2022/02/19 01:09:14;;;;;;;10.55;4.10;;;;;;;;;;5033148;28;20037;-65
2022/02/19 01:11:40;;;;;;;13.55;4.22;;;;;;;;;;5032658;28;20083;-64
2022/02/19 01:14:07;;;;;;;11.40;4.40;;;;;;;;;;5032782;28;20030;-65
2022/02/19 01:16:33;;;;;;;13.30;4.97;;;;;;;;;;5032720;28;20053;-64
2022/02/19 01:18:59;;;;;;;13.48;4.22;;;;;;;;;;5032406;28;20037;-66
2022/02/19 01:21:26;;;;;;;13.27;4.35;;;;;;;;;;5032523;28;20021;-65
2022/02/19 01:23:52;;;;;;;11.10;4.05;;;;;;;;;;5031230;28;20033;-64
2022/02/19 01:26:18;;;;;;;12.00;4.72;;;;;;;;;;5032639;28;20363;-64
2022/02/19 01:28:44;;;;;;;10.93;4.30;;;;;;;;;;5032371;28;20043;-64
2022/02/19 01:31:10;;;;;;;10.52;4.10;;;;;;;;;;5032236;28;20426;-64
2022/02/19 01:33:36;;;;;;;11.65;4.38;;;;;;;;;;5032674;28;20109;-65
2022/02/19 01:36:03;;;;;;;10.55;4.25;;;;;;;;;;5032904;28;20390;-65
2022/02/19 01:38:29;;;;;;;12.38;4.55;;;;;;;;;;5032185;28;20029;-64
2022/02/19 01:40:56;;;;;;;10.70;4.07;;;;;;;;;;5032322;28;20029;-64
2022/02/19 01:43:22;;;;;;;8.98;3.55;;;;;;;;;;5032244;28;20056;-64
2022/02/19 01:45:49;;;;;;;11.10;3.78;;;;;;;;;;5031981;28;20402;-64
2022/02/19 01:48:15;;;;;;;11.05;4.05;;;;;;;;;;5032050;28;20025;-65
2022/02/19 01:50:42;;;;;;;10.40;4.13;;;;;;;;;;5032330;28;20037;-65
2022/02/19 01:53:08;;;;;;;9.80;3.75;;;;;;;;;;5032539;28;20033;-65
2022/02/19 01:55:34;;;;;;;13.18;3.92;;;;;;;;;;5032371;28;20111;-65
2022/02/19 01:58:02;;;;;;;10.73;4.50;;;;;;;;;;5032021;28;20394;-64
2022/02/19 02:00:29;;;;;;;9.57;3.90;;;;;;;;;;5032254;28;20029;-65
2022/02/19 02:02:57;;;;;;;9.30;3.90;;;;;;;;;;5031862;28;20604;-65
2022/02/19 02:05:24;;;;;;;9.93;3.92;;;;;;;;;;5031009;28;20100;-65
2022/02/19 02:07:50;;;;;;;12.02;4.40;;;;;;;;;;5031844;28;20921;-64
2022/02/19 02:10:16;;;;;;;8.23;3.70;;;;;;;;;;5032108;28;20139;-64
2022/02/19 02:12:43;;;;;;;10.73;3.88;;;;;;;;;;5031859;28;20034;-65
2022/02/19 02:15:27;;;;;;;8.90;3.58;;;;;;;;;;5031984;28;20064;-64
2022/02/19 02:17:53;;;;;;;10.93;3.78;;;;;;;;;;5031700;28;20501;-65
2022/02/19 02:20:20;;;;;;;11.80;4.72;;;;;;;;;;5031552;28;20200;-64
2022/02/19 02:22:46;;;;;;;12.80;3.53;;;;;;;;;;5031767;28;20040;-65
2022/02/19 02:25:12;;;;;;;11.10;4.18;;;;;;;;;;5031653;28;20466;-65
2022/02/19 02:27:38;;;;;;;11.48;3.75;;;;;;;;;;5031468;28;20530;-65
2022/02/19 02:30:05;;;;;;;9.40;3.88;;;;;;;;;;5031553;28;20108;-65
2022/02/19 02:32:31;;;;;;;9.57;3.90;;;;;;;;;;5031246;28;20080;-65
2022/02/19 02:34:57;;;;;;;12.57;3.75;;;;;;;;;;5031144;28;20466;-65
2022/02/19 02:37:24;;;;;;;10.98;3.58;;;;;;;;;;5031038;28;20535;-65
2022/02/19 02:39:51;;;;;;;8.73;3.42;;;;;;;;;;5031375;28;20079;-65
2022/02/19 02:42:18;;;;;;;8.98;3.22;;;;;;;;;;5030981;28;20037;-65
2022/02/19 02:44:45;;;;;;;9.45;3.30;;;;;;;;;;5031193;28;20087;-64
2022/02/19 02:47:11;;;;;;;8.90;3.30;;;;;;;;;;5030977;28;20136;-64
2022/02/19 02:49:38;;;;;;;9.15;3.33;;;;;;;;;;5030980;28;20104;-64
2022/02/19 02:52:05;;;;;;;8.73;2.88;;;;;;;;;;5031329;28;20056;-64
2022/02/19 02:54:31;;;;;;;9.63;3.40;;;;;;;;;;5031219;28;20057;-64
2022/02/19 02:56:57;;;;;;;10.38;3.65;;;;;;;;;;5031403;28;20025;-64
2022/02/19 02:59:23;;;;;;;12.02;3.40;;;;;;;;;;5031010;28;20029;-65
2022/02/19 03:01:49;;;;;;;7.78;3.40;;;;;;;;;;5031971;28;20517;-64
2022/02/19 03:04:16;;;;;;;8.95;3.28;;;;;;;;;;5031716;28;20036;-65
2022/02/19 03:06:42;;;;;;;8.85;3.70;;;;;;;;;;5031068;28;20041;-64
2022/02/19 03:09:08;;;;;;;9.13;3.75;;;;;;;;;;5031190;28;20032;-65
2022/02/19 03:11:35;;;;;;;8.88;3.60;;;;;;;;;;5031104;28;20071;-65
2022/02/19 03:14:02;;;;;;;8.43;3.33;;;;;;;;;;5030612;28;20026;-64
2022/02/19 03:16:28;;;;;;;11.40;3.92;;;;;;;;;;5032127;28;20041;-64
2022/02/19 03:18:54;;;;;;;10.15;3.85;;;;;;;;;;5035328;28;20061;-65
2022/02/19 03:21:20;;;;;;;13.68;3.80;;;;;;;;;;5034800;28;20045;-64
2022/02/19 03:23:46;;;;;;;10.43;3.95;;;;;;;;;;5035034;28;20065;-65
2022/02/19 03:26:13;;;;;;;7.57;3.30;;;;;;;;;;5034907;28;20096;-65
2022/02/19 03:28:39;;;;;;;9.40;3.58;;;;;;;;;;5034839;28;20029;-65
2022/02/19 03:31:05;;;;;;;10.15;3.88;;;;;;;;;;5034845;28;20710;-65
2022/02/19 03:33:31;;;;;;;6.97;3.60;;;;;;;;;;5034969;28;20072;-64
2022/02/19 03:35:57;;;;;;;10.68;3.70;;;;;;;;;;5034675;28;20055;-65
2022/02/19 03:38:23;;;;;;;11.38;4.20;;;;;;;;;;5034735;28;20026;-64
2022/02/19 03:40:49;;;;;;;8.68;3.63;;;;;;;;;;5034731;28;20446;-64
2022/02/19 03:43:15;;;;;;;10.88;4.00;;;;;;;;;;5034158;28;20033;-65
2022/02/19 03:45:43;;;;;;;10.63;3.75;;;;;;;;;;5034412;28;20042;-65
2022/02/19 03:48:12;;;;;;;9.82;3.63;;;;;;;;;;5034419;28;20029;-65
2022/02/19 03:50:38;;;;;;;11.90;4.07;;;;;;;;;;5034250;28;20022;-64
2022/02/19 03:53:05;;;;;;;11.15;4.22;;;;;;;;;;5034411;28;20100;-64
2022/02/19 03:55:31;;;;;;;12.30;4.28;;;;;;;;;;5034708;28;20430;-64
2022/02/19 03:57:57;;;;;;;8.35;3.75;;;;;;;;;;5034292;28;20475;-64
2022/02/19 04:00:24;;;;;;;8.52;3.67;;;;;;;;;;5034038;28;20033;-64
2022/02/19 04:02:50;;;;;;;8.95;3.13;;;;;;;;;;5034451;28;20472;-64
2022/02/19 04:05:16;;;;;;;9.07;3.60;;;;;;;;;;5034232;28;20366;-64
2022/02/19 04:07:44;;;;;;;9.07;3.40;;;;;;;;;;5034131;28;20528;-64
2022/02/19 04:10:10;;;;;;;8.68;3.33;;;;;;;;;;5034124;28;20112;-65
2022/02/19 04:12:36;;;;;;;7.57;3.20;;;;;;;;;;5034354;28;20108;-65
2022/02/19 04:15:03;;;;;;;8.55;3.65;;;;;;;;;;5033896;28;20076;-64
2022/02/19 04:17:29;;;;;;;11.60;3.70;;;;;;;;;;5034016;28;20490;-65
2022/02/19 04:19:55;;;;;;;12.48;4.03;;;;;;;;;;5033877;28;20075;-65
2022/02/19 04:22:21;;;;;;;10.52;3.72;;;;;;;;;;5033756;28;20436;-65
2022/02/19 04:24:49;;;;;;;10.20;3.80;;;;;;;;;;5033938;28;20021;-64
2022/02/19 04:27:15;;;;;;;9.50;3.90;;;;;;;;;;5032152;28;20048;-65
2022/02/19 04:29:41;;;;;;;8.05;3.33;;;;;;;;;;5032784;28;20029;-64
2022/02/19 04:32:08;;;;;;;11.00;3.63;;;;;;;;;;5033905;28;20026;-64
2022/02/19 04:34:34;;;;;;;11.32;4.30;;;;;;;;;;5033531;28;20022;-65
2022/02/19 04:37:00;;;;;;;7.93;3.42;;;;;;;;;;5033802;28;20029;-64
2022/02/19 04:39:26;;;;;;;11.02;4.00;;;;;;;;;;5033762;28;20037;-65
2022/02/19 04:41:52;;;;;;;11.48;3.60;;;;;;;;;;5033640;28;20064;-64
2022/02/19 04:44:18;;;;;;;9.05;3.30;;;;;;;;;;5033441;28;20041;-65
2022/02/19 04:46:45;;;;;;;9.80;3.70;;;;;;;;;;5033403;28;20053;-64
2022/02/19 04:49:11;;;;;;;11.02;3.70;;;;;;;;;;5033424;28;20029;-65
2022/02/19 04:51:37;;;;;;;11.60;3.67;;;;;;;;;;5033589;28;20052;-64
2022/02/19 04:54:03;;;;;;;10.75;3.88;;;;;;;;;;5033711;28;20029;-64
2022/02/19 04:56:31;;;;;;;12.95;4.10;;;;;;;;;;5033207;28;20076;-65
2022/02/19 04:58:57;;;;;;;13.38;4.10;;;;;;;;;;5033356;28;20022;-65
2022/02/19 05:01:23;;;;;;;8.63;3.60;;;;;;;;;;5033266;28;20474;-65
2022/02/19 05:03:49;;;;;;;9.32;3.88;;;;;;;;;;5033223;28;20037;-65
2022/02/19 05:06:15;;;;;;;15.20;4.88;;;;;;;;;;5033330;28;20389;-65
2022/02/19 05:08:42;;;;;;;17.70;6.60;;;;;;;;;;5033174;28;20032;-65
2022/02/19 05:11:08;;;;;;;19.15;6.30;;;;;;;;;;5033137;28;20060;-65
2022/02/19 05:13:34;;;;;;;22.88;8.15;;;;;;;;;;5032935;28;20021;-65
2022/02/19 05:16:00;;;;;;;18.92;7.38;;;;;;;;;;5033329;28;20041;-65
2022/02/19 05:18:26;;;;;;;17.95;6.47;;;;;;;;;;5032791;28;20034;-66
2022/02/19 05:20:55;;;;;;;18.40;6.97;;;;;;;;;;5032919;28;20440;-65
2022/02/19 05:23:22;;;;;;;16.08;7.05;;;;;;;;;;5032487;28;20049;-65
2022/02/19 05:25:48;;;;;;;20.30;6.35;;;;;;;;;;5032764;28;20030;-66
2022/02/19 05:28:14;;;;;;;18.50;6.40;;;;;;;;;;5032672;28;20512;-66
2022/02/19 05:30:40;;;;;;;15.38;5.90;;;;;;;;;;5032717;28;20068;-65
2022/02/19 05:33:06;;;;;;;16.30;5.43;;;;;;;;;;5032833;28;20499;-65
2022/02/19 05:35:33;;;;;;;14.98;6.03;;;;;;;;;;5032601;28;20053;-66
2022/02/19 05:37:59;;;;;;;12.80;5.07;;;;;;;;;;5032568;28;20057;-66
2022/02/19 05:40:26;;;;;;;9.50;4.40;;;;;;;;;;5031985;28;20061;-65
2022/02/19 05:42:52;;;;;;;13.18;4.97;;;;;;;;;;5031886;28;20037;-65
2022/02/19 05:45:18;;;;;;;16.30;5.10;;;;;;;;;;5032202;28;20041;-65
2022/02/19 05:47:44;;;;;;;15.10;5.35;;;;;;;;;;5032413;28;20108;-64
2022/02/19 05:50:11;;;;;;;13.20;5.40;;;;;;;;;;5032260;28;20029;-66
2022/02/19 05:52:37;;;;;;;18.60;5.90;;;;;;;;;;5032082;28;20468;-66
2022/02/19 05:55:03;;;;;;;20.10;6.35;;;;;;;;;;5031820;28;20109;-65
2022/02/19 05:57:30;;;;;;;15.80;6.00;;;;;;;;;;5032150;28;20064;-65
2022/02/19 05:59:56;;;;;;;15.15;6.65;;;;;;;;;;5031839;28;20100;-65
2022/02/19 06:02:22;;;;;;;19.15;7.03;;;;;;;;;;5031956;28;20103;-64
2022/02/19 06:04:48;;;;;;;13.07;6.07;;;;;;;;;;5031999;28;20029;-65
2022/02/19 06:07:15;;;;;;;15.85;6.40;;;;;;;;;;5032065;28;20025;-65
2022/02/19 06:09:41;;;;;;;18.75;7.03;;;;;;;;;;5032037;28;20032;-65
2022/02/19 06:12:08;;;;;;;17.33;7.20;;;;;;;;;;5030659;28;20409;-65
2022/02/19 06:14:34;;;;;;;19.92;7.60;;;;;;;;;;5031893;28;20458;-65
2022/02/19 06:17:02;;;;;;;21.35;8.48;;;;;;;;;;5031661;28;20115;-65
2022/02/19 06:19:28;;;;;;;21.77;9.20;;;;;;;;;;5031515;28;20472;-63
2022/02/19 06:21:54;;;;;;;24.20;9.13;;;;;;;;;;5031334;28;20091;-65
2022/02/19 06:24:20;;;;;;;24.02;8.43;;;;;;;;;;5030506;28;20132;-65
2022/02/19 06:26:46;;;;;;;26.55;11.10;;;;;;;;;;5031467;28;20022;-64
2022/02/19 06:29:12;;;;;;;19.25;9.18;;;;;;;;;;5031525;28;20079;-64
2022/02/19 06:31:38;;;;;;;27.13;9.30;;;;;;;;;;5031397;28;20495;-64
2022/02/19 06:34:04;;;;;;;24.48;9.55;;;;;;;;;;5031422;28;20021;-64
2022/02/19 06:36:30;;;;;;;18.85;8.98;;;;;;;;;;5031211;28;20036;-63
2022/02/19 06:38:56;;;;;;;24.73;9.90;;;;;;;;;;5031487;28;20025;-64
2022/02/19 06:41:22;;;;;;;22.58;9.43;;;;;;;;;;5031168;28;20030;-64
2022/02/19 06:43:48;;;;;;;24.60;12.20;;;;;;;;;;5031016;28;20037;-66
2022/02/19 06:46:14;;;;;;;27.85;12.40;;;;;;;;;;5031142;28;20054;-63
2022/02/19 06:48:41;;;;;;;28.55;12.88;;;;;;;;;;5031169;28;20112;-65
2022/02/19 06:51:07;;;;;;;36.63;14.35;;;;;;;;;;5030720;28;20545;-65
2022/02/19 06:53:33;;;;;;;37.72;16.08;;;;;;;;;;5031286;28;20029;-65
2022/02/19 06:55:59;;;;;;;39.40;17.42;;;;;;;;;;5031585;28;20050;-65
2022/02/19 06:58:25;;;;;;;37.03;16.52;;;;;;;;;;5031283;28;20064;-65
2022/02/19 07:00:52;;;;;;;36.00;14.48;;;;;;;;;;5031199;28;20028;-63
2022/02/19 07:03:19;;;;;;;33.08;15.43;;;;;;;;;;5030014;28;20045;-63
2022/02/19 07:05:45;;;;;;;31.67;14.18;;;;;;;;;;5031181;28;20029;-63
2022/02/19 07:08:12;;;;;;;28.90;14.45;;;;;;;;;;5031116;28;20053;-63
2022/02/19 07:10:38;;;;;;;28.10;12.48;;;;;;;;;;5031159;28;20064;-65
2022/02/19 07:13:05;;;;;;;34.75;13.30;;;;;;;;;;5030874;28;20076;-65
2022/02/19 07:15:31;;;;;;;29.08;12.70;;;;;;;;;;5030933;28;20529;-65
2022/02/19 07:17:58;;;;;;;29.55;13.27;;;;;;;;;;5031417;28;20537;-65
2022/02/19 07:20:24;;;;;;;31.65;13.80;;;;;;;;;;5031083;28;20080;-64
2022/02/19 07:22:51;;;;;;;31.17;14.25;;;;;;;;;;5031088;28;20061;-64
2022/02/19 07:25:18;;;;;;;38.03;15.48;;;;;;;;;;5031192;28;20032;-64
2022/02/19 07:27:45;;;;;;;31.65;15.98;;;;;;;;;;5031067;28;20084;-64
2022/02/19 07:30:19;;;;;;;32.97;16.92;;;;;;;;;;5031011;28;20026;-64
2022/02/19 07:32:45;;;;;;;41.78;19.33;;;;;;;;;;5031002;28;20045;-65
2022/02/19 07:35:11;;;;;;;36.65;18.42;;;;;;;;;;5030398;28;20075;-64
2022/02/19 07:37:38;;;;;;;36.60;17.88;;;;;;;;;;5030875;28;20389;-64
2022/02/19 07:40:05;;;;;;;35.85;17.45;;;;;;;;;;5030506;28;20017;-64
2022/02/19 07:42:32;;;;;;;41.38;17.23;;;;;;;;;;5030286;28;20038;-63
2022/02/19 07:44:58;;;;;;;32.30;16.70;;;;;;;;;;5030424;28;20029;-65
2022/02/19 07:47:25;;;;;;;33.03;16.45;;;;;;;;;;5030200;28;20069;-64
2022/02/19 07:58:18;;;;;;;39.58;18.15;;;;;;;;;;5030388;28;20402;-64
2022/02/19 08:00:48;;;;;;;27.38;14.18;;;;;;;;;;5030319;28;20028;-64
2022/02/19 08:03:15;;;;;;;37.53;16.92;;;;;;;;;;5032767;28;20371;-64
2022/02/19 08:05:41;;;;;;;35.88;15.57;;;;;;;;;;5034200;28;20049;-64
2022/02/19 08:08:07;;;;;;;26.13;14.05;;;;;;;;;;5033622;28;20026;-65
2022/02/19 08:10:34;;;;;;;27.80;13.90;;;;;;;;;;5033999;28;20022;-64
2022/02/19 08:13:00;;;;;;;29.83;11.63;;;;;;;;;;5033819;28;20436;-64
2022/02/19 08:15:26;;;;;;;22.48;10.05;;;;;;;;;;5034193;28;20113;-65
2022/02/19 08:17:52;;;;;;;19.33;8.68;;;;;;;;;;5033987;28;20385;-64
2022/02/19 08:20:18;;;;;;;29.45;10.77;;;;;;;;;;5033570;28;20033;-64
2022/02/19 08:22:44;;;;;;;24.52;9.90;;;;;;;;;;5033224;28;20041;-64
2022/02/19 08:25:10;;;;;;;20.05;8.68;;;;;;;;;;5033695;28;20022;-64
2022/02/19 08:27:39;;;;;;;17.73;7.85;;;;;;;;;;5033702;28;20123;-64
2022/02/19 08:30:06;;;;;;;18.70;9.10;;;;;;;;;;5033671;28;20396;-64
2022/02/19 08:32:32;;;;;;;11.57;5.03;;;;;;;;;;5033486;28;20034;-65
2022/02/19 08:34:58;;;;;;;11.13;5.78;;;;;;;;;;5033691;28;20540;-65
2022/02/19 08:37:25;;;;;;;13.75;5.97;;;;;;;;;;5033504;28;20033;-65
2022/02/19 08:39:51;;;;;;;12.15;5.50;;;;;;;;;;5033309;28;20391;-65
2022/02/19 08:42:17;;;;;;;13.43;6.55;;;;;;;;;;5033164;28;20034;-64
2022/02/19 08:44:44;;;;;;;13.25;6.32;;;;;;;;;;5032318;28;20057;-63
2022/02/19 08:47:10;;;;;;;14.77;6.03;;;;;;;;;;5033090;28;20095;-64
2022/02/19 08:49:36;;;;;;;11.68;6.07;;;;;;;;;;5032945;28;20112;-64
2022/02/19 08:52:02;;;;;;;14.48;6.45;;;;;;;;;;5032608;28;20101;-64
2022/02/19 08:54:28;;;;;;;16.23;6.75;;;;;;;;;;5032431;28;20030;-64
2022/02/19 08:56:54;;;;;;;14.10;7.05;;;;;;;;;;5032659;28;20109;-66
2022/02/19 08:59:21;;;;;;;15.02;6.65;;;;;;;;;;5032701;28;20474;-66
2022/02/19 09:01:47;;;;;;;13.73;5.90;;;;;;;;;;5032569;28;20033;-66
2022/02/19 09:04:13;;;;;;;12.73;6.00;;;;;;;;;;5032836;28;20036;-65
2022/02/19 09:06:39;;;;;;;11.10;6.07;;;;;;;;;;5032660;28;20498;-66
2022/02/19 09:09:06;;;;;;;15.68;5.32;;;;;;;;;;5032328;28;20455;-66
2022/02/19 09:11:33;;;;;;;9.70;4.82;;;;;;;;;;5032950;28;20025;-65
2022/02/19 09:13:59;;;;;;;11.23;5.13;;;;;;;;;;5031975;28;20052;-65
2022/02/19 09:16:29;;;;;;;12.05;5.40;;;;;;;;;;5032051;28;20116;-65
2022/02/19 09:18:55;;;;;;;12.07;4.97;;;;;;;;;;5032594;28;20018;-65
2022/02/19 09:21:21;;;;;;;11.18;4.90;;;;;;;;;;5032599;28;20029;-66
2022/02/19 09:23:47;;;;;;;11.05;5.68;;;;;;;;;;5032449;28;20033;-65
2022/02/19 09:26:13;;;;;;;11.00;5.70;;;;;;;;;;5029994;28;20466;-65
2022/02/19 09:28:39;;;;;;;10.98;5.50;;;;;;;;;;5020241;28;20491;-65
2022/02/19 09:31:05;;;;;;;10.57;4.57;;;;;;;;;;5021706;28;20481;-66
2022/02/19 09:33:31;;;;;;;10.75;4.60;;;;;;;;;;5020743;28;20022;-65
2022/02/19 09:35:58;;;;;;;10.02;4.25;;;;;;;;;;5011868;28;20390;-66
2022/02/19 09:38:24;;;;;;;11.23;4.63;;;;;;;;;;5012248;28;20026;-65
2022/02/19 09:40:50;;;;;;;12.25;4.45;;;;;;;;;;5012532;28;20105;-65
2022/02/19 09:43:17;;;;;;;6.85;3.53;;;;;;;;;;5012164;28;20084;-65
2022/02/19 09:45:45;;;;;;;11.48;3.50;;;;;;;;;;5012204;28;20049;-65
2022/02/19 09:48:12;;;;;;;11.13;3.90;;;;;;;;;;5011937;28;20446;-65
2022/02/19 09:50:39;;;;;;;10.18;3.97;;;;;;;;;;5011654;28;20104;-66
2022/02/19 09:53:05;;;;;;;9.13;4.32;;;;;;;;;;5011604;28;20061;-65
2022/02/19 09:55:33;;;;;;;9.65;4.10;;;;;;;;;;5011933;28;20066;-65
2022/02/19 09:58:00;;;;;;;9.73;4.47;;;;;;;;;;5011681;28;20026;-65
2022/02/19 10:00:36;;;;;;;11.73;3.70;;;;;;;;;;5011999;28;20046;-65
2022/02/19 10:03:02;;;;;;;10.13;3.33;;;;;;;;;;5011936;28;20486;-65
2022/02/19 10:05:32;;;;;;;9.57;3.83;;;;;;;;;;5012360;28;20489;-66
2022/02/19 10:08:08;;;;;;;12.32;4.70;;;;;;;;;;5011846;28;20029;-65
2022/02/19 10:10:35;;;;;;;11.13;4.03;;;;;;;;;;5011417;28;20088;-65
2022/02/19 10:13:01;;;;;;;8.40;3.90;;;;;;;;;;5011588;28;20021;-65
2022/02/19 10:15:39;;;;;;;7.40;3.05;;;;;;;;;;5011656;28;20034;-65
2022/02/19 10:18:21;;;;;;;11.43;3.47;;;;;;;;;;5011902;28;20026;-65
2022/02/19 10:20:47;;;;;;;;;;;;;;;;;;5011147;28;20122;-66
2022/02/19 10:23:14;;;;;;;5.22;2.35;;;;;;;;;;5011396;28;20015;-65
2022/02/19 10:25:40;;;;;;;6.40;2.72;;;;;;;;;;5010543;28;20026;-65
2022/02/19 10:28:10;;;;;;;6.53;3.00;;;;;;;;;;5011494;28;20030;-65
2022/02/19 10:30:36;;;;;;;7.30;3.40;;;;;;;;;;5011427;28;20417;-65
2022/02/19 10:33:05;;;;;;;8.65;3.42;;;;;;;;;;5011488;28;20447;-66
2022/02/19 10:35:35;;;;;;;8.98;4.53;;;;;;;;;;5011434;28;20030;-64
2022/02/19 10:38:11;;;;;;;12.63;3.97;;;;;;;;;;5011342;28;20030;-65
2022/02/19 10:40:43;;;;;;;11.48;4.88;;;;;;;;;;5011647;28;20034;-65
2022/02/19 10:43:11;;;;;;;14.27;5.75;;;;;;;;;;5011193;28;20113;-66
2022/02/19 10:45:38;;;;;;;11.20;5.05;;;;;;;;;;5011232;28;20069;-65
2022/02/19 10:48:22;;;;;;;8.85;4.40;;;;;;;;;;5011261;28;20065;-65
2022/02/19 10:50:48;;;;;;;11.77;5.35;;;;;;;;;;5011521;28;20112;-65
2022/02/19 10:53:21;;;;;;;13.13;6.30;;;;;;;;;;5011115;28;20029;-65
2022/02/19 10:55:48;;;;;;;16.60;6.45;;;;;;;;;;5011155;28;20018;-65
2022/02/19 10:58:14;;;;;;;11.50;4.63;;;;;;;;;;5010767;28;20072;-66
2022/02/19 11:00:40;;;;;;;12.52;4.93;;;;;;;;;;5011143;28;20034;-65
2022/02/19 11:03:06;;;;;;;14.02;5.25;;;;;;;;;;5010815;28;20034;-65
2022/02/19 11:05:32;;;;;;;10.30;5.05;;;;;;;;;;5010897;28;20072;-66
2022/02/19 11:08:01;;;;;;;12.05;5.55;;;;;;;;;;5010628;28;20484;-66
2022/02/19 11:10:28;;;;;;;11.20;5.70;;;;;;;;;;5011136;28;20022;-66
2022/02/19 11:12:54;;;;;;;11.52;4.95;;;;;;;;;;5010693;28;20029;-66
2022/02/19 11:15:23;;;;;;;9.70;4.70;;;;;;;;;;5011009;28;20072;-65
2022/02/19 11:17:49;;;;;;;9.63;4.85;;;;;;;;;;5016299;28;20025;-65
2022/02/19 11:20:16;;;;;;;11.57;4.22;;;;;;;;;;5020131;28;20026;-65
2022/02/19 11:22:43;;;;;;;10.45;4.63;;;;;;;;;;5019256;28;20033;-65
2022/02/19 11:25:14;;;;;;;11.82;4.95;;;;;;;;;;5019441;28;20030;-65
2022/02/19 11:27:44;;;;;;;9.77;4.57;;;;;;;;;;5019534;28;20029;-65
2022/02/19 11:30:10;;;;;;;14.95;5.85;;;;;;;;;;5018989;28;20771;-65
2022/02/19 11:32:38;;;;;;;13.70;5.50;;;;;;;;;;5018034;28;20044;-65
2022/02/19 11:35:04;;;;;;;11.77;5.57;;;;;;;;;;5020139;28;20018;-66
2022/02/19 11:37:30;;;;;;;14.05;5.90;;;;;;;;;;5022543;28;20451;-65
2022/02/19 11:39:57;;;;;;;12.07;6.07;;;;;;;;;;5019940;28;20498;-66
2022/02/19 11:42:35;;;;;;;11.23;5.55;;;;;;;;;;5014302;28;20037;-65
2022/02/19 11:45:15;;;;;;;14.88;5.47;;;;;;;;;;5014483;28;20438;-66
2022/02/19 11:47:42;;;;;;;8.32;4.03;;;;;;;;;;5014418;28;20045;-65
2022/02/19 11:50:19;;;;;;;8.73;3.60;;;;;;;;;;5014225;28;20026;-66
2022/02/19 11:52:46;;;;;;;8.05;4.13;;;;;;;;;;5013568;28;20045;-66
2022/02/19 11:55:31;;;;;;;10.40;4.65;;;;;;;;;;5014490;28;20461;-65
2022/02/19 11:58:01;;;;;;;9.77;4.20;;;;;;;;;;5014067;28;20390;-65
2022/02/19 12:00:42;;;;;;;10.00;4.50;;;;;;;;;;5014139;28;20097;-65
2022/02/19 12:03:35;;;;;;;7.38;4.05;;;;;;;;;;5016365;28;20125;-65
2022/02/19 12:06:18;;;;;;;6.22;3.80;;;;;;;;;;5012944;28;20053;-65
2022/02/19 12:08:49;;;;;;;8.65;4.30;;;;;;;;;;5013941;28;20073;-66
2022/02/19 12:11:18;;;;;;;8.02;4.25;;;;;;;;;;5013749;28;20084;-65
2022/02/19 12:13:54;;;;;;;10.32;3.80;;;;;;;;;;5013668;28;20034;-66
2022/02/19 12:16:39;;;;;;;8.75;5.00;;;;;;;;;;5014175;28;20029;-66
2022/02/19 12:19:06;;;;;;;9.65;4.20;;;;;;;;;;5013760;28;20289;-65
2022/02/19 12:21:39;;;;;;;8.85;4.35;;;;;;;;;;5014086;28;20101;-65
2022/02/19 12:24:27;;;;;;;7.35;3.80;;;;;;;;;;5013382;28;20041;-66
2022/02/19 12:26:59;;;;;;;11.10;5.68;;;;;;;;;;5013648;28;20053;-66
2022/02/19 12:29:32;;;;;;;6.22;3.20;;;;;;;;;;5013294;28;20022;-66
2022/02/19 12:32:09;;;;;;;8.13;4.65;;;;;;;;;;5012767;28;20360;-64
2022/02/19 12:34:40;;;;;;;9.18;4.13;;;;;;;;;;5013626;28;20458;-64
2022/02/19 12:37:09;;;;;;;7.75;3.58;;;;;;;;;;5013379;28;20029;-65
2022/02/19 12:39:41;;;;;;;6.57;3.35;;;;;;;;;;5013549;28;20026;-66
2022/02/19 12:42:07;;;;;;;8.13;3.15;;;;;;;;;;5013121;28;20447;-65
2022/02/19 12:44:34;;;;;;;6.47;3.50;;;;;;;;;;5013309;28;20426;-65
2022/02/19 12:47:00;;;;;;;14.40;5.53;;;;;;;;;;5012868;28;20056;-65
2022/02/19 12:49:26;;;;;;;11.70;4.07;;;;;;;;;;5012192;28;20092;-66
2022/02/19 12:51:56;;;;;;;8.27;4.15;;;;;;;;;;5012693;28;20061;-65
2022/02/19 12:54:38;;;;;;;8.60;3.90;;;;;;;;;;5012686;28;20030;-66
2022/02/19 12:57:09;;;;;;;5.63;3.33;;;;;;;;;;5012638;28;20438;-65
2022/02/19 12:59:36;;;;;;;8.25;3.38;;;;;;;;;;5013099;28;20040;-65
2022/02/19 13:02:03;;;;;;;5.15;2.63;;;;;;;;;;5012633;28;20022;-65
2022/02/19 13:04:33;;;;;;;8.50;3.67;;;;;;;;;;5012512;28;20112;-65
2022/02/19 13:06:59;;;;;;;10.43;5.30;;;;;;;;;;5012526;28;20053;-65
2022/02/19 13:09:27;;;;;;;9.68;4.35;;;;;;;;;;5012669;28;20033;-65
2022/02/19 13:11:54;;;;;;;7.93;4.10;;;;;;;;;;5012510;28;20173;-65
2022/02/19 13:14:20;;;;;;;8.77;4.38;;;;;;;;;;5012757;28;20030;-66
2022/02/19 13:16:58;;;;;;;9.25;5.43;;;;;;;;;;5012332;28;20069;-66
2022/02/19 13:19:24;;;;;;;9.70;4.03;;;;;;;;;;5013040;28;20026;-66
2022/02/19 13:22:04;;;;;;;6.20;2.92;;;;;;;;;;5012262;28;20084;-65
2022/02/19 13:24:30;;;;;;;6.05;3.03;;;;;;;;;;5012848;28;20038;-65
2022/02/19 13:27:15;;;;;;;7.20;2.80;;;;;;;;;;5012645;28;20489;-65
2022/02/19 13:29:54;;;;;;;5.50;2.85;;;;;;;;;;5012730;28;20033;-64
2022/02/19 13:32:26;;;;;;;6.75;3.13;;;;;;;;;;5012762;28;20400;-65
2022/02/19 13:34:52;;;;;;;12.13;4.10;;;;;;;;;;5012131;28;20061;-65
2022/02/19 13:37:18;;;;;;;7.75;3.58;;;;;;;;;;5012377;28;20080;-66
2022/02/19 13:39:46;;;;;;;6.90;2.72;;;;;;;;;;5012390;28;20026;-65
2022/02/19 13:42:12;;;;;;;4.95;2.63;;;;;;;;;;5012178;28;20393;-66
2022/02/19 13:44:45;;;;;;;6.15;2.67;;;;;;;;;;5011714;28;20036;-65
2022/02/19 13:47:11;;;;;;;7.13;2.45;;;;;;;;;;5012112;28;20062;-65
2022/02/19 13:49:45;;;;;;;5.75;2.63;;;;;;;;;;5011948;28;20080;-66
2022/02/19 13:52:25;;;;;;;5.75;2.88;;;;;;;;;;5011910;28;20030;-65
2022/02/19 13:54:51;;;;;;;9.65;4.07;;;;;;;;;;5011952;28;20040;-65
2022/02/19 13:57:18;;;;;;;10.20;4.43;;;;;;;;;;5012436;28;20447;-66
2022/02/19 14:00:05;;;;;;;8.75;4.00;;;;;;;;;;5011855;28;20022;-64
2022/02/19 14:02:31;;;;;;;16.63;9.00;;;;;;;;;;5012001;28;20077;-65
2022/02/19 14:04:59;;;;;;;9.73;4.95;;;;;;;;;;5011863;28;20032;-65
2022/02/19 14:07:25;;;;;;;13.07;6.60;;;;;;;;;;5011766;28;20486;-66
2022/02/19 14:10:07;;;;;;;8.40;4.05;;;;;;;;;;5011746;28;20030;-66
2022/02/19 14:12:37;;;;;;;9.50;4.70;;;;;;;;;;5011417;28;20471;-65
2022/02/19 14:15:04;;;;;;;9.63;3.95;;;;;;;;;;5011116;28;20364;-64
2022/02/19 14:17:38;;;;;;;19.00;9.73;;;;;;;;;;5012022;28;20117;-64
2022/02/19 14:20:09;;;;;;;16.45;7.50;;;;;;;;;;5011798;28;20084;-65
2022/02/19 14:22:41;;;;;;;10.10;5.00;;;;;;;;;;5011378;28;20092;-64
2022/02/19 14:25:11;;;;;;;12.30;5.60;;;;;;;;;;5012022;28;20099;-64
2022/02/19 14:27:46;;;;;;;9.75;4.70;;;;;;;;;;5011507;28;20026;-65
2022/02/19 14:30:12;;;;;;;11.45;4.40;;;;;;;;;;5011939;28;20022;-65
2022/02/19 14:32:38;;;;;;;14.27;6.10;;;;;;;;;;5011606;28;20076;-64
2022/02/19 14:35:05;;;;;;;7.63;4.38;;;;;;;;;;5011311;28;20032;-65
2022/02/19 14:37:31;;;;;;;9.18;4.15;;;;;;;;;;5011715;28;20179;-64
2022/02/19 14:39:57;;;;;;;9.35;4.78;;;;;;;;;;5011681;28;20049;-64
2022/02/19 14:42:23;;;;;;;7.93;3.50;;;;;;;;;;5011551;28;20502;-65
2022/02/19 14:44:49;;;;;;;12.68;5.97;;;;;;;;;;5011315;28;20026;-66